sensor_id;sensor_type;location;lat;lon;timestamp;P1;durP1;ratioP1;P2;durP2;ratioP2
1523;SDS011;755;53.658;10.118;2023-05-10T00:08:24;8.50;;;2.72;;
1523;SDS011;755;53.658;10.118;2023-05-10T00:18:26;12.45;;;2.75;;
1523;SDS011;755;53.658;10.118;2023-05-10T00:28:29;5.65;;;2.45;;
1523;SDS011;755;53.658;10.118;2023-05-10T00:38:31;6.75;;;2.63;;
1523;SDS011;755;53.658;10.118;2023-05-10T00:48:35;8.25;;;2.83;;
1523;SDS011;755;53.658;10.118;2023-05-10T00:58:37;10.90;;;2.80;;
1523;SDS011;755;53.658;10.118;2023-05-10T01:08:41;10.98;;;3.03;;
1523;SDS011;755;53.658;10.118;2023-05-10T01:18:43;6.85;;;2.70;;
1523;SDS011;755;53.658;10.118;2023-05-10T01:29:01;9.55;;;3.15;;
1523;SDS011;755;53.658;10.118;2023-05-10T01:39:23;6.25;;;3.08;;
1523;SDS011;755;53.658;10.118;2023-05-10T01:49:30;7.15;;;2.65;;
1523;SDS011;755;53.658;10.118;2023-05-10T01:59:37;7.20;;;3.03;;
1523;SDS011;755;53.658;10.118;2023-05-10T02:09:41;6.95;;;3.13;;
1523;SDS011;755;53.658;10.118;2023-05-10T02:19:49;8.37;;;2.63;;
1523;SDS011;755;53.658;10.118;2023-05-10T02:29:56;10.68;;;3.40;;
1523;SDS011;755;53.658;10.118;2023-05-10T02:40:01;9.65;;;2.88;;
1523;SDS011;755;53.658;10.118;2023-05-10T02:50:06;10.67;;;2.70;;
1523;SDS011;755;53.658;10.118;2023-05-10T03:00:11;9.95;;;3.55;;
1523;SDS011;755;53.658;10.118;2023-05-10T03:10:13;9.77;;;2.75;;
1523;SDS011;755;53.658;10.118;2023-05-10T03:20:23;6.25;;;3.13;;
1523;SDS011;755;53.658;10.118;2023-05-10T03:30:27;6.40;;;2.90;;
1523;SDS011;755;53.658;10.118;2023-05-10T03:40:31;5.47;;;3.05;;
1523;SDS011;755;53.658;10.118;2023-05-10T03:50:33;5.22;;;3.15;;
1523;SDS011;755;53.658;10.118;2023-05-10T04:00:37;8.15;;;3.33;;
1523;SDS011;755;53.658;10.118;2023-05-10T04:10:43;5.97;;;3.17;;
1523;SDS011;755;53.658;10.118;2023-05-10T04:20:46;6.75;;;3.63;;
1523;SDS011;755;53.658;10.118;2023-05-10T04:30:48;15.52;;;3.38;;
1523;SDS011;755;53.658;10.118;2023-05-10T04:40:52;8.20;;;3.28;;
1523;SDS011;755;53.658;10.118;2023-05-10T04:50:54;4.50;;;3.25;;
1523;SDS011;755;53.658;10.118;2023-05-10T05:00:59;7.72;;;3.47;;
1523;SDS011;755;53.658;10.118;2023-05-10T05:11:06;5.28;;;2.90;;
1523;SDS011;755;53.658;10.118;2023-05-10T05:21:16;7.95;;;3.45;;
1523;SDS011;755;53.658;10.118;2023-05-10T05:31:19;12.93;;;3.65;;
1523;SDS011;755;53.658;10.118;2023-05-10T05:41:22;13.05;;;5.15;;
1523;SDS011;755;53.658;10.118;2023-05-10T05:51:25;7.05;;;3.28;;
1523;SDS011;755;53.658;10.118;2023-05-10T06:01:28;8.27;;;3.40;;
1523;SDS011;755;53.658;10.118;2023-05-10T06:11:30;15.77;;;3.47;;
1523;SDS011;755;53.658;10.118;2023-05-10T06:21:33;13.32;;;3.30;;
1523;SDS011;755;53.658;10.118;2023-05-10T06:31:35;6.13;;;3.22;;
1523;SDS011;755;53.658;10.118;2023-05-10T06:41:38;8.07;;;3.40;;
1523;SDS011;755;53.658;10.118;2023-05-10T06:51:40;9.48;;;3.13;;
1523;SDS011;755;53.658;10.118;2023-05-10T07:01:43;11.85;;;3.33;;
1523;SDS011;755;53.658;10.118;2023-05-10T07:11:45;7.25;;;3.45;;
1523;SDS011;755;53.658;10.118;2023-05-10T07:21:49;8.70;;;4.03;;
1523;SDS011;755;53.658;10.118;2023-05-10T07:31:51;10.25;;;4.00;;
1523;SDS011;755;53.658;10.118;2023-05-10T07:41:54;6.18;;;3.72;;
1523;SDS011;755;53.658;10.118;2023-05-10T07:51:57;9.00;;;3.30;;
1523;SDS011;755;53.658;10.118;2023-05-10T08:02:00;10.18;;;3.50;;
1523;SDS011;755;53.658;10.118;2023-05-10T08:12:02;8.15;;;3.67;;
1523;SDS011;755;53.658;10.118;2023-05-10T08:22:05;6.45;;;3.35;;
1523;SDS011;755;53.658;10.118;2023-05-10T08:32:07;6.88;;;3.28;;
1523;SDS011;755;53.658;10.118;2023-05-10T08:42:11;11.15;;;4.00;;
1523;SDS011;755;53.658;10.118;2023-05-10T08:52:16;7.27;;;3.50;;
1523;SDS011;755;53.658;10.118;2023-05-10T09:02:20;15.23;;;3.85;;
1523;SDS011;755;53.658;10.118;2023-05-10T09:12:24;6.10;;;3.75;;
1523;SDS011;755;53.658;10.118;2023-05-10T09:22:27;15.60;;;3.58;;
1523;SDS011;755;53.658;10.118;2023-05-10T09:32:36;7.95;;;4.60;;
1523;SDS011;755;53.658;10.118;2023-05-10T09:42:40;9.27;;;3.97;;
1523;SDS011;755;53.658;10.118;2023-05-10T09:52:47;7.18;;;4.40;;
1523;SDS011;755;53.658;10.118;2023-05-10T10:12:57;8.18;;;4.18;;
1523;SDS011;755;53.658;10.118;2023-05-10T10:23:00;7.20;;;4.82;;
1523;SDS011;755;53.658;10.118;2023-05-10T10:33:17;26.25;;;11.88;;
1523;SDS011;755;53.658;10.118;2023-05-10T10:43:33;11.05;;;6.85;;
1523;SDS011;755;53.658;10.118;2023-05-10T10:53:36;11.98;;;7.18;;
1523;SDS011;755;53.658;10.118;2023-05-10T11:03:41;13.75;;;7.78;;
1523;SDS011;755;53.658;10.118;2023-05-10T11:14:03;13.57;;;8.43;;
1523;SDS011;755;53.658;10.118;2023-05-10T11:24:12;16.50;;;9.50;;
1523;SDS011;755;53.658;10.118;2023-05-10T11:34:25;16.42;;;9.05;;
1523;SDS011;755;53.658;10.118;2023-05-10T11:44:30;14.02;;;8.88;;
1523;SDS011;755;53.658;10.118;2023-05-10T11:54:32;15.68;;;9.10;;
1523;SDS011;755;53.658;10.118;2023-05-10T12:04:36;14.30;;;8.48;;
1523;SDS011;755;53.658;10.118;2023-05-10T12:14:38;14.38;;;9.15;;
1523;SDS011;755;53.658;10.118;2023-05-10T12:24:42;13.27;;;9.30;;
1523;SDS011;755;53.658;10.118;2023-05-10T12:34:46;18.20;;;11.10;;
1523;SDS011;755;53.658;10.118;2023-05-10T12:44:50;17.08;;;10.98;;
1523;SDS011;755;53.658;10.118;2023-05-10T12:54:56;15.18;;;9.95;;
1523;SDS011;755;53.658;10.118;2023-05-10T13:04:59;13.30;;;8.30;;
1523;SDS011;755;53.658;10.118;2023-05-10T13:15:01;14.23;;;8.88;;
1523;SDS011;755;53.658;10.118;2023-05-10T13:25:05;15.38;;;7.60;;
1523;SDS011;755;53.658;10.118;2023-05-10T13:35:07;14.65;;;7.88;;
1523;SDS011;755;53.658;10.118;2023-05-10T13:45:11;9.43;;;7.03;;
1523;SDS011;755;53.658;10.118;2023-05-10T13:55:13;10.95;;;6.38;;
1523;SDS011;755;53.658;10.118;2023-05-10T14:05:16;8.32;;;5.78;;
1523;SDS011;755;53.658;10.118;2023-05-10T14:15:18;8.90;;;6.00;;
1523;SDS011;755;53.658;10.118;2023-05-10T14:25:22;8.23;;;5.80;;
1523;SDS011;755;53.658;10.118;2023-05-10T14:35:24;6.93;;;5.57;;
1523;SDS011;755;53.658;10.118;2023-05-10T14:45:28;7.93;;;5.70;;
1523;SDS011;755;53.658;10.118;2023-05-10T14:55:30;9.15;;;5.38;;
1523;SDS011;755;53.658;10.118;2023-05-10T15:05:34;9.55;;;5.80;;
1523;SDS011;755;53.658;10.118;2023-05-10T15:15:37;7.95;;;4.35;;
1523;SDS011;755;53.658;10.118;2023-05-10T15:25:40;5.47;;;3.88;;
1523;SDS011;755;53.658;10.118;2023-05-10T15:35:42;7.00;;;4.45;;
1523;SDS011;755;53.658;10.118;2023-05-10T15:45:45;6.22;;;3.97;;
1523;SDS011;755;53.658;10.118;2023-05-10T15:55:48;6.35;;;4.32;;
1523;SDS011;755;53.658;10.118;2023-05-10T16:05:52;6.13;;;4.50;;
1523;SDS011;755;53.658;10.118;2023-05-10T16:15:54;6.93;;;4.20;;
1523;SDS011;755;53.658;10.118;2023-05-10T16:25:59;8.93;;;5.05;;
1523;SDS011;755;53.658;10.118;2023-05-10T16:36:03;6.45;;;4.22;;
1523;SDS011;755;53.658;10.118;2023-05-10T16:46:10;7.95;;;5.32;;
1523;SDS011;755;53.658;10.118;2023-05-10T16:56:12;3.88;;;2.15;;
1523;SDS011;755;53.658;10.118;2023-05-10T17:17:37;10.27;;;5.88;;
1523;SDS011;755;53.658;10.118;2023-05-10T17:28:12;8.25;;;6.38;;
1523;SDS011;755;53.658;10.118;2023-05-10T17:38:19;10.93;;;7.60;;
1523;SDS011;755;53.658;10.118;2023-05-10T17:48:21;10.20;;;7.05;;
1523;SDS011;755;53.658;10.118;2023-05-10T17:58:26;11.68;;;8.18;;
1523;SDS011;755;53.658;10.118;2023-05-10T18:08:32;17.08;;;9.77;;
1523;SDS011;755;53.658;10.118;2023-05-10T18:18:36;14.23;;;8.20;;
1523;SDS011;755;53.658;10.118;2023-05-10T18:28:39;15.18;;;9.45;;
1523;SDS011;755;53.658;10.118;2023-05-10T18:38:45;16.33;;;10.40;;
1523;SDS011;755;53.658;10.118;2023-05-10T18:48:56;13.43;;;8.38;;
1523;SDS011;755;53.658;10.118;2023-05-10T18:59:01;11.05;;;7.22;;
1523;SDS011;755;53.658;10.118;2023-05-10T19:09:06;12.30;;;6.97;;
1523;SDS011;755;53.658;10.118;2023-05-10T19:19:28;10.15;;;6.95;;
1523;SDS011;755;53.658;10.118;2023-05-10T19:29:51;13.55;;;6.93;;
1523;SDS011;755;53.658;10.118;2023-05-10T19:39:55;9.93;;;7.18;;
1523;SDS011;755;53.658;10.118;2023-05-10T19:49:57;9.30;;;6.95;;
1523;SDS011;755;53.658;10.118;2023-05-10T20:00:00;14.00;;;8.75;;
1523;SDS011;755;53.658;10.118;2023-05-10T20:10:04;11.48;;;7.43;;
1523;SDS011;755;53.658;10.118;2023-05-10T20:20:08;11.57;;;8.10;;
1523;SDS011;755;53.658;10.118;2023-05-10T20:30:10;15.38;;;11.88;;
1523;SDS011;755;53.658;10.118;2023-05-10T20:40:14;13.95;;;10.52;;
1523;SDS011;755;53.658;10.118;2023-05-10T20:50:16;15.82;;;12.63;;
1523;SDS011;755;53.658;10.118;2023-05-10T21:00:20;16.10;;;12.82;;
1523;SDS011;755;53.658;10.118;2023-05-10T21:10:22;18.42;;;14.00;;
1523;SDS011;755;53.658;10.118;2023-05-10T21:20:26;19.10;;;13.63;;
1523;SDS011;755;53.658;10.118;2023-05-10T21:30:28;24.92;;;17.00;;
1523;SDS011;755;53.658;10.118;2023-05-10T21:40:32;25.25;;;15.80;;
1523;SDS011;755;53.658;10.118;2023-05-10T21:50:34;28.17;;;16.17;;
1523;SDS011;755;53.658;10.118;2023-05-10T22:00:37;28.20;;;18.08;;
1523;SDS011;755;53.658;10.118;2023-05-10T22:10:39;31.45;;;18.67;;
1523;SDS011;755;53.658;10.118;2023-05-10T22:20:44;30.17;;;17.70;;
1523;SDS011;755;53.658;10.118;2023-05-10T22:30:46;31.10;;;18.48;;
1523;SDS011;755;53.658;10.118;2023-05-10T22:40:50;31.08;;;18.80;;
1523;SDS011;755;53.658;10.118;2023-05-10T22:50:52;35.88;;;19.33;;
1523;SDS011;755;53.658;10.118;2023-05-10T23:00:55;36.10;;;19.63;;
1523;SDS011;755;53.658;10.118;2023-05-10T23:10:57;40.15;;;19.70;;
1523;SDS011;755;53.658;10.118;2023-05-10T23:21:01;35.78;;;18.58;;
1523;SDS011;755;53.658;10.118;2023-05-10T23:31:03;35.25;;;19.70;;
1523;SDS011;755;53.658;10.118;2023-05-10T23:41:06;41.20;;;20.67;;
1523;SDS011;755;53.658;10.118;2023-05-10T23:51:09;39.58;;;18.73;;
